sensor_id;sensor_type;location;lat;lon;timestamp;temperature;humidity
57892;DHT22;43708;48.828;9.166;2023-05-16T00:01:13;20.30;93.10
57892;DHT22;43708;48.828;9.166;2023-05-16T00:03:41;20.30;93.20
57892;DHT22;43708;48.828;9.166;2023-05-16T00:06:07;20.30;93.20
57892;DHT22;43708;48.828;9.166;2023-05-16T00:08:33;20.30;93.20
57892;DHT22;43708;48.828;9.166;2023-05-16T00:10:59;20.30;93.20
57892;DHT22;43708;48.828;9.166;2023-05-16T00:13:24;20.30;93.20
57892;DHT22;43708;48.828;9.166;2023-05-16T00:15:53;20.30;93.20
57892;DHT22;43708;48.828;9.166;2023-05-16T00:18:20;20.30;93.20
57892;DHT22;43708;48.828;9.166;2023-05-16T00:20:47;20.30;93.20
57892;DHT22;43708;48.828;9.166;2023-05-16T00:23:13;20.30;93.20
57892;DHT22;43708;48.828;9.166;2023-05-16T00:25:39;20.30;93.20
57892;DHT22;43708;48.828;9.166;2023-05-16T00:28:05;20.30;93.20
57892;DHT22;43708;48.828;9.166;2023-05-16T00:30:31;20.30;93.20
57892;DHT22;43708;48.828;9.166;2023-05-16T00:32:57;20.30;93.20
57892;DHT22;43708;48.828;9.166;2023-05-16T00:35:22;20.30;93.20
57892;DHT22;43708;48.828;9.166;2023-05-16T00:37:49;20.30;93.20
57892;DHT22;43708;48.828;9.166;2023-05-16T00:40:15;20.30;93.30
57892;DHT22;43708;48.828;9.166;2023-05-16T00:42:41;20.30;93.30
57892;DHT22;43708;48.828;9.166;2023-05-16T00:45:08;20.30;93.30
57892;DHT22;43708;48.828;9.166;2023-05-16T00:47:34;20.30;93.30
57892;DHT22;43708;48.828;9.166;2023-05-16T00:50:00;20.30;93.30
57892;DHT22;43708;48.828;9.166;2023-05-16T00:52:26;20.30;93.30
57892;DHT22;43708;48.828;9.166;2023-05-16T00:54:53;20.20;93.30
57892;DHT22;43708;48.828;9.166;2023-05-16T00:57:18;20.20;93.30
57892;DHT22;43708;48.828;9.166;2023-05-16T00:59:45;20.20;93.30
57892;DHT22;43708;48.828;9.166;2023-05-16T01:02:12;20.20;93.30
57892;DHT22;43708;48.828;9.166;2023-05-16T01:04:38;20.20;93.30
57892;DHT22;43708;48.828;9.166;2023-05-16T01:07:04;20.20;93.30
57892;DHT22;43708;48.828;9.166;2023-05-16T01:09:30;20.20;93.30
57892;DHT22;43708;48.828;9.166;2023-05-16T01:12:35;20.20;93.30
57892;DHT22;43708;48.828;9.166;2023-05-16T01:15:09;20.20;93.30
57892;DHT22;43708;48.828;9.166;2023-05-16T01:17:49;20.20;93.30
57892;DHT22;43708;48.828;9.166;2023-05-16T01:25:49;20.20;93.30
57892;DHT22;43708;48.828;9.166;2023-05-16T01:28:17;20.20;93.30
57892;DHT22;43708;48.828;9.166;2023-05-16T01:30:43;20.10;93.20
57892;DHT22;43708;48.828;9.166;2023-05-16T01:33:09;20.20;93.30
57892;DHT22;43708;48.828;9.166;2023-05-16T01:35:39;20.10;93.20
57892;DHT22;43708;48.828;9.166;2023-05-16T01:38:25;20.20;93.30
57892;DHT22;43708;48.828;9.166;2023-05-16T01:41:01;20.20;93.30
57892;DHT22;43708;48.828;9.166;2023-05-16T01:43:33;20.20;93.30
57892;DHT22;43708;48.828;9.166;2023-05-16T01:46:08;20.20;93.30
57892;DHT22;43708;48.828;9.166;2023-05-16T01:48:42;20.20;93.30
57892;DHT22;43708;48.828;9.166;2023-05-16T01:51:09;20.10;93.20
57892;DHT22;43708;48.828;9.166;2023-05-16T01:53:37;20.10;93.20
57892;DHT22;43708;48.828;9.166;2023-05-16T01:56:05;20.10;93.30
57892;DHT22;43708;48.828;9.166;2023-05-16T01:58:33;20.10;93.30
57892;DHT22;43708;48.828;9.166;2023-05-16T02:01:04;20.10;93.30
57892;DHT22;43708;48.828;9.166;2023-05-16T02:03:30;20.10;93.30
57892;DHT22;43708;48.828;9.166;2023-05-16T02:05:56;20.20;93.30
57892;DHT22;43708;48.828;9.166;2023-05-16T02:08:23;20.10;93.30
57892;DHT22;43708;48.828;9.166;2023-05-16T02:10:49;20.10;93.20
57892;DHT22;43708;48.828;9.166;2023-05-16T02:13:14;20.10;93.30
57892;DHT22;43708;48.828;9.166;2023-05-16T02:15:40;20.10;93.30
57892;DHT22;43708;48.828;9.166;2023-05-16T02:18:05;20.10;93.30
57892;DHT22;43708;48.828;9.166;2023-05-16T02:20:31;20.10;93.30
57892;DHT22;43708;48.828;9.166;2023-05-16T02:22:57;20.10;93.30
57892;DHT22;43708;48.828;9.166;2023-05-16T02:25:23;20.10;93.30
57892;DHT22;43708;48.828;9.166;2023-05-16T02:27:49;20.10;93.30
57892;DHT22;43708;48.828;9.166;2023-05-16T02:30:14;20.10;93.30
57892;DHT22;43708;48.828;9.166;2023-05-16T02:32:40;20.10;93.30
57892;DHT22;43708;48.828;9.166;2023-05-16T02:35:09;20.10;93.30
57892;DHT22;43708;48.828;9.166;2023-05-16T02:37:35;20.10;93.30
57892;DHT22;43708;48.828;9.166;2023-05-16T02:40:01;20.10;93.30
57892;DHT22;43708;48.828;9.166;2023-05-16T02:42:26;20.10;93.30
57892;DHT22;43708;48.828;9.166;2023-05-16T02:44:52;20.10;93.30
57892;DHT22;43708;48.828;9.166;2023-05-16T02:47:18;20.10;93.30
57892;DHT22;43708;48.828;9.166;2023-05-16T02:49:43;20.10;93.20
57892;DHT22;43708;48.828;9.166;2023-05-16T02:52:09;20.10;93.20
57892;DHT22;43708;48.828;9.166;2023-05-16T02:54:36;20.00;93.60
57892;DHT22;43708;48.828;9.166;2023-05-16T02:57:01;20.10;93.20
57892;DHT22;43708;48.828;9.166;2023-05-16T02:59:27;20.10;93.20
57892;DHT22;43708;48.828;9.166;2023-05-16T03:01:52;20.10;93.20
57892;DHT22;43708;48.828;9.166;2023-05-16T03:04:18;20.10;93.20
57892;DHT22;43708;48.828;9.166;2023-05-16T03:06:43;20.10;93.20
57892;DHT22;43708;48.828;9.166;2023-05-16T03:09:09;20.00;93.20
57892;DHT22;43708;48.828;9.166;2023-05-16T03:11:35;20.00;93.20
57892;DHT22;43708;48.828;9.166;2023-05-16T03:14:00;20.00;93.20
57892;DHT22;43708;48.828;9.166;2023-05-16T03:16:26;20.00;93.20
57892;DHT22;43708;48.828;9.166;2023-05-16T03:18:52;20.00;93.20
57892;DHT22;43708;48.828;9.166;2023-05-16T03:21:18;20.10;93.20
57892;DHT22;43708;48.828;9.166;2023-05-16T03:23:43;20.00;93.20
57892;DHT22;43708;48.828;9.166;2023-05-16T03:26:09;20.00;93.20
57892;DHT22;43708;48.828;9.166;2023-05-16T03:28:36;20.00;93.20
57892;DHT22;43708;48.828;9.166;2023-05-16T03:31:01;20.00;93.20
57892;DHT22;43708;48.828;9.166;2023-05-16T03:33:27;20.00;93.20
57892;DHT22;43708;48.828;9.166;2023-05-16T03:35:52;20.00;93.20
57892;DHT22;43708;48.828;9.166;2023-05-16T03:38:18;20.00;93.20
57892;DHT22;43708;48.828;9.166;2023-05-16T03:40:44;20.00;93.20
57892;DHT22;43708;48.828;9.166;2023-05-16T03:43:09;20.00;93.20
57892;DHT22;43708;48.828;9.166;2023-05-16T03:45:35;20.00;93.20
57892;DHT22;43708;48.828;9.166;2023-05-16T03:48:01;20.00;93.20
57892;DHT22;43708;48.828;9.166;2023-05-16T03:50:26;20.00;93.20
57892;DHT22;43708;48.828;9.166;2023-05-16T03:52:52;20.00;93.50
57892;DHT22;43708;48.828;9.166;2023-05-16T03:55:19;20.00;93.20
57892;DHT22;43708;48.828;9.166;2023-05-16T03:57:45;20.00;93.20
57892;DHT22;43708;48.828;9.166;2023-05-16T04:00:11;20.00;93.20
57892;DHT22;43708;48.828;9.166;2023-05-16T04:02:38;20.00;93.20
57892;DHT22;43708;48.828;9.166;2023-05-16T04:05:08;20.00;93.20
57892;DHT22;43708;48.828;9.166;2023-05-16T04:07:34;20.00;93.20
57892;DHT22;43708;48.828;9.166;2023-05-16T04:10:00;20.00;93.20
57892;DHT22;43708;48.828;9.166;2023-05-16T04:12:26;20.00;93.20
57892;DHT22;43708;48.828;9.166;2023-05-16T04:14:51;20.00;93.20
57892;DHT22;43708;48.828;9.166;2023-05-16T04:17:17;19.90;93.10
57892;DHT22;43708;48.828;9.166;2023-05-16T04:19:43;20.00;93.20
57892;DHT22;43708;48.828;9.166;2023-05-16T04:22:08;19.90;93.10
57892;DHT22;43708;48.828;9.166;2023-05-16T04:24:34;20.00;93.20
57892;DHT22;43708;48.828;9.166;2023-05-16T04:26:59;19.90;93.10
57892;DHT22;43708;48.828;9.166;2023-05-16T04:29:25;20.00;93.20
57892;DHT22;43708;48.828;9.166;2023-05-16T04:31:51;20.00;93.20
57892;DHT22;43708;48.828;9.166;2023-05-16T04:34:16;20.00;93.20
57892;DHT22;43708;48.828;9.166;2023-05-16T04:36:43;20.00;93.50
57892;DHT22;43708;48.828;9.166;2023-05-16T04:39:08;19.90;93.10
57892;DHT22;43708;48.828;9.166;2023-05-16T04:41:34;20.00;93.20
57892;DHT22;43708;48.828;9.166;2023-05-16T04:44:01;19.90;93.10
57892;DHT22;43708;48.828;9.166;2023-05-16T04:46:29;20.00;93.20
57892;DHT22;43708;48.828;9.166;2023-05-16T04:48:54;20.00;93.50
57892;DHT22;43708;48.828;9.166;2023-05-16T04:51:20;19.90;93.10
57892;DHT22;43708;48.828;9.166;2023-05-16T04:53:46;19.90;93.10
57892;DHT22;43708;48.828;9.166;2023-05-16T04:56:12;20.00;93.20
57892;DHT22;43708;48.828;9.166;2023-05-16T04:58:37;19.90;93.10
57892;DHT22;43708;48.828;9.166;2023-05-16T05:01:03;19.90;93.10
57892;DHT22;43708;48.828;9.166;2023-05-16T05:03:29;19.90;93.10
57892;DHT22;43708;48.828;9.166;2023-05-16T05:05:55;19.90;93.10
57892;DHT22;43708;48.828;9.166;2023-05-16T05:08:21;19.90;93.10
57892;DHT22;43708;48.828;9.166;2023-05-16T05:10:46;19.90;93.10
57892;DHT22;43708;48.828;9.166;2023-05-16T05:13:12;19.90;93.10
57892;DHT22;43708;48.828;9.166;2023-05-16T05:15:37;20.00;93.20
57892;DHT22;43708;48.828;9.166;2023-05-16T05:18:03;19.90;93.10
57892;DHT22;43708;48.828;9.166;2023-05-16T05:20:29;19.90;93.10
57892;DHT22;43708;48.828;9.166;2023-05-16T05:22:54;19.90;93.10
57892;DHT22;43708;48.828;9.166;2023-05-16T05:25:20;19.90;93.10
57892;DHT22;43708;48.828;9.166;2023-05-16T05:27:45;19.90;93.10
57892;DHT22;43708;48.828;9.166;2023-05-16T05:30:11;19.90;93.10
57892;DHT22;43708;48.828;9.166;2023-05-16T05:32:37;19.90;93.10
57892;DHT22;43708;48.828;9.166;2023-05-16T05:35:03;19.90;93.10
57892;DHT22;43708;48.828;9.166;2023-05-16T05:37:29;19.90;93.10
57892;DHT22;43708;48.828;9.166;2023-05-16T05:39:55;19.90;93.10
57892;DHT22;43708;48.828;9.166;2023-05-16T05:42:21;19.90;93.10
57892;DHT22;43708;48.828;9.166;2023-05-16T05:44:46;19.90;93.10
57892;DHT22;43708;48.828;9.166;2023-05-16T05:47:12;19.90;93.10
57892;DHT22;43708;48.828;9.166;2023-05-16T05:49:38;19.90;93.10
57892;DHT22;43708;48.828;9.166;2023-05-16T05:52:03;20.00;93.10
57892;DHT22;43708;48.828;9.166;2023-05-16T05:54:29;20.00;93.10
57892;DHT22;43708;48.828;9.166;2023-05-16T05:56:58;20.00;93.00
57892;DHT22;43708;48.828;9.166;2023-05-16T05:59:23;20.00;93.00
57892;DHT22;43708;48.828;9.166;2023-05-16T06:01:49;20.10;93.00
57892;DHT22;43708;48.828;9.166;2023-05-16T06:04:18;20.10;93.00
57892;DHT22;43708;48.828;9.166;2023-05-16T06:06:44;20.10;93.00
57892;DHT22;43708;48.828;9.166;2023-05-16T06:09:09;20.10;93.00
57892;DHT22;43708;48.828;9.166;2023-05-16T06:11:35;20.10;93.10
57892;DHT22;43708;48.828;9.166;2023-05-16T06:14:00;20.10;93.10
57892;DHT22;43708;48.828;9.166;2023-05-16T06:16:26;20.20;93.10
57892;DHT22;43708;48.828;9.166;2023-05-16T06:18:51;20.10;93.00
57892;DHT22;43708;48.828;9.166;2023-05-16T06:21:17;20.20;93.10
57892;DHT22;43708;48.828;9.166;2023-05-16T06:23:43;20.10;93.10
57892;DHT22;43708;48.828;9.166;2023-05-16T06:26:08;20.20;93.10
57892;DHT22;43708;48.828;9.166;2023-05-16T06:28:34;20.20;93.10
57892;DHT22;43708;48.828;9.166;2023-05-16T06:30:59;20.20;93.10
57892;DHT22;43708;48.828;9.166;2023-05-16T06:33:25;20.20;93.10
57892;DHT22;43708;48.828;9.166;2023-05-16T06:35:51;20.20;93.10
57892;DHT22;43708;48.828;9.166;2023-05-16T06:38:18;20.20;93.20
57892;DHT22;43708;48.828;9.166;2023-05-16T06:40:46;20.20;93.20
57892;DHT22;43708;48.828;9.166;2023-05-16T06:43:12;20.20;93.20
57892;DHT22;43708;48.828;9.166;2023-05-16T06:45:38;20.20;93.30
57892;DHT22;43708;48.828;9.166;2023-05-16T06:48:05;20.10;93.20
57892;DHT22;43708;48.828;9.166;2023-05-16T06:50:31;20.20;93.30
57892;DHT22;43708;48.828;9.166;2023-05-16T06:52:57;20.20;93.30
57892;DHT22;43708;48.828;9.166;2023-05-16T06:55:22;20.20;93.30
57892;DHT22;43708;48.828;9.166;2023-05-16T06:57:48;20.20;93.40
57892;DHT22;43708;48.828;9.166;2023-05-16T07:00:14;20.20;93.40
57892;DHT22;43708;48.828;9.166;2023-05-16T07:02:40;20.20;93.40
57892;DHT22;43708;48.828;9.166;2023-05-16T07:05:06;20.20;93.40
57892;DHT22;43708;48.828;9.166;2023-05-16T07:07:32;20.10;93.40
57892;DHT22;43708;48.828;9.166;2023-05-16T07:09:57;19.90;93.50
57892;DHT22;43708;48.828;9.166;2023-05-16T07:12:23;19.90;93.60
57892;DHT22;43708;48.828;9.166;2023-05-16T07:14:48;19.90;93.70
57892;DHT22;43708;48.828;9.166;2023-05-16T07:17:15;19.90;93.70
57892;DHT22;43708;48.828;9.166;2023-05-16T07:19:41;19.90;93.70
57892;DHT22;43708;48.828;9.166;2023-05-16T07:22:06;19.90;93.60
57892;DHT22;43708;48.828;9.166;2023-05-16T07:24:32;19.90;93.70
57892;DHT22;43708;48.828;9.166;2023-05-16T07:26:57;20.00;93.70
57892;DHT22;43708;48.828;9.166;2023-05-16T07:29:24;20.00;93.70
57892;DHT22;43708;48.828;9.166;2023-05-16T07:31:50;20.00;93.60
57892;DHT22;43708;48.828;9.166;2023-05-16T07:34:15;19.90;93.70
57892;DHT22;43708;48.828;9.166;2023-05-16T07:36:41;19.90;93.70
57892;DHT22;43708;48.828;9.166;2023-05-16T07:39:07;19.90;93.60
57892;DHT22;43708;48.828;9.166;2023-05-16T07:41:32;20.00;93.70
57892;DHT22;43708;48.828;9.166;2023-05-16T07:43:58;20.00;93.70
57892;DHT22;43708;48.828;9.166;2023-05-16T07:46:23;20.00;93.60
57892;DHT22;43708;48.828;9.166;2023-05-16T07:48:49;20.00;93.60
57892;DHT22;43708;48.828;9.166;2023-05-16T07:51:15;20.00;93.60
57892;DHT22;43708;48.828;9.166;2023-05-16T07:53:40;20.00;93.60
57892;DHT22;43708;48.828;9.166;2023-05-16T07:56:06;20.00;93.60
57892;DHT22;43708;48.828;9.166;2023-05-16T07:58:32;20.00;93.70
57892;DHT22;43708;48.828;9.166;2023-05-16T08:00:58;20.00;93.60
57892;DHT22;43708;48.828;9.166;2023-05-16T08:03:24;20.00;93.60
57892;DHT22;43708;48.828;9.166;2023-05-16T08:05:49;20.00;93.60
57892;DHT22;43708;48.828;9.166;2023-05-16T08:08:16;20.00;93.60
57892;DHT22;43708;48.828;9.166;2023-05-16T08:10:41;20.00;93.60
57892;DHT22;43708;48.828;9.166;2023-05-16T08:13:07;20.00;93.60
57892;DHT22;43708;48.828;9.166;2023-05-16T08:15:32;20.00;93.60
57892;DHT22;43708;48.828;9.166;2023-05-16T08:17:58;20.00;93.70
57892;DHT22;43708;48.828;9.166;2023-05-16T08:20:25;20.00;93.60
57892;DHT22;43708;48.828;9.166;2023-05-16T08:22:51;20.00;93.60
57892;DHT22;43708;48.828;9.166;2023-05-16T08:25:17;20.10;93.70
57892;DHT22;43708;48.828;9.166;2023-05-16T08:27:44;20.00;93.60
57892;DHT22;43708;48.828;9.166;2023-05-16T08:30:10;20.00;93.60
57892;DHT22;43708;48.828;9.166;2023-05-16T08:32:37;20.00;93.60
57892;DHT22;43708;48.828;9.166;2023-05-16T08:35:02;20.10;93.70
57892;DHT22;43708;48.828;9.166;2023-05-16T08:37:28;20.00;93.70
57892;DHT22;43708;48.828;9.166;2023-05-16T08:39:54;20.00;93.70
57892;DHT22;43708;48.828;9.166;2023-05-16T08:42:19;20.00;93.70
57892;DHT22;43708;48.828;9.166;2023-05-16T08:44:45;20.00;93.70
57892;DHT22;43708;48.828;9.166;2023-05-16T08:47:15;20.00;93.70
57892;DHT22;43708;48.828;9.166;2023-05-16T08:49:43;20.00;93.70
57892;DHT22;43708;48.828;9.166;2023-05-16T08:52:12;20.00;93.70
57892;DHT22;43708;48.828;9.166;2023-05-16T08:54:39;20.00;93.70
57892;DHT22;43708;48.828;9.166;2023-05-16T08:57:05;20.00;93.70
57892;DHT22;43708;48.828;9.166;2023-05-16T08:59:32;20.00;93.70
57892;DHT22;43708;48.828;9.166;2023-05-16T09:01:59;20.00;93.70
57892;DHT22;43708;48.828;9.166;2023-05-16T09:04:25;20.00;93.70
57892;DHT22;43708;48.828;9.166;2023-05-16T09:06:52;20.10;93.70
57892;DHT22;43708;48.828;9.166;2023-05-16T09:09:17;20.10;93.70
57892;DHT22;43708;48.828;9.166;2023-05-16T09:11:53;20.00;93.70
57892;DHT22;43708;48.828;9.166;2023-05-16T09:14:19;20.10;93.70
57892;DHT22;43708;48.828;9.166;2023-05-16T09:16:44;20.10;93.70
57892;DHT22;43708;48.828;9.166;2023-05-16T09:19:41;20.00;93.70
57892;DHT22;43708;48.828;9.166;2023-05-16T09:22:11;20.10;93.70
57892;DHT22;43708;48.828;9.166;2023-05-16T09:24:43;20.10;93.70
57892;DHT22;43708;48.828;9.166;2023-05-16T09:27:13;20.10;93.70
57892;DHT22;43708;48.828;9.166;2023-05-16T09:29:41;20.10;93.70
57892;DHT22;43708;48.828;9.166;2023-05-16T09:32:15;20.00;93.70
57892;DHT22;43708;48.828;9.166;2023-05-16T09:37:09;20.00;93.70
57892;DHT22;43708;48.828;9.166;2023-05-16T09:39:35;20.00;93.80
57892;DHT22;43708;48.828;9.166;2023-05-16T09:42:01;20.00;93.80
57892;DHT22;43708;48.828;9.166;2023-05-16T09:44:27;19.90;93.90
57892;DHT22;43708;48.828;9.166;2023-05-16T09:46:55;19.90;94.10
57892;DHT22;43708;48.828;9.166;2023-05-16T09:49:21;19.80;94.30
57892;DHT22;43708;48.828;9.166;2023-05-16T09:51:47;19.70;94.40
57892;DHT22;43708;48.828;9.166;2023-05-16T09:54:12;19.70;94.50
57892;DHT22;43708;48.828;9.166;2023-05-16T09:56:49;19.70;94.60
57892;DHT22;43708;48.828;9.166;2023-05-16T09:59:15;19.70;94.50
57892;DHT22;43708;48.828;9.166;2023-05-16T10:01:41;19.70;94.50
57892;DHT22;43708;48.828;9.166;2023-05-16T10:04:07;19.80;94.40
57892;DHT22;43708;48.828;9.166;2023-05-16T10:06:39;19.80;94.40
57892;DHT22;43708;48.828;9.166;2023-05-16T10:09:05;19.80;94.40
57892;DHT22;43708;48.828;9.166;2023-05-16T10:11:32;19.90;94.40
57892;DHT22;43708;48.828;9.166;2023-05-16T10:13:58;19.90;94.40
57892;DHT22;43708;48.828;9.166;2023-05-16T10:16:24;19.80;94.30
57892;DHT22;43708;48.828;9.166;2023-05-16T10:18:51;19.90;94.30
57892;DHT22;43708;48.828;9.166;2023-05-16T10:21:18;19.90;94.40
57892;DHT22;43708;48.828;9.166;2023-05-16T10:23:47;19.90;94.30
57892;DHT22;43708;48.828;9.166;2023-05-16T10:26:15;19.90;94.30
57892;DHT22;43708;48.828;9.166;2023-05-16T10:28:41;19.90;94.30
57892;DHT22;43708;48.828;9.166;2023-05-16T10:31:09;19.90;94.30
57892;DHT22;43708;48.828;9.166;2023-05-16T10:33:35;19.90;94.30
57892;DHT22;43708;48.828;9.166;2023-05-16T10:36:01;19.90;94.30
57892;DHT22;43708;48.828;9.166;2023-05-16T10:38:29;19.90;94.30
57892;DHT22;43708;48.828;9.166;2023-05-16T10:40:55;19.90;94.20
57892;DHT22;43708;48.828;9.166;2023-05-16T10:43:25;19.90;94.20
57892;DHT22;43708;48.828;9.166;2023-05-16T10:45:56;19.90;94.20
57892;DHT22;43708;48.828;9.166;2023-05-16T10:48:35;19.90;94.20
57892;DHT22;43708;48.828;9.166;2023-05-16T10:51:09;19.90;94.20
57892;DHT22;43708;48.828;9.166;2023-05-16T10:53:53;19.90;94.20
57892;DHT22;43708;48.828;9.166;2023-05-16T10:56:27;19.90;94.10
57892;DHT22;43708;48.828;9.166;2023-05-16T10:58:53;19.90;94.10
57892;DHT22;43708;48.828;9.166;2023-05-16T11:01:34;19.90;94.10
57892;DHT22;43708;48.828;9.166;2023-05-16T11:04:08;19.90;94.10
57892;DHT22;43708;48.828;9.166;2023-05-16T11:12:00;19.90;94.00
57892;DHT22;43708;48.828;9.166;2023-05-16T11:14:35;19.90;94.00
57892;DHT22;43708;48.828;9.166;2023-05-16T11:17:17;19.90;94.00
57892;DHT22;43708;48.828;9.166;2023-05-16T11:19:49;19.90;93.90
57892;DHT22;43708;48.828;9.166;2023-05-16T11:25:03;19.90;93.90
57892;DHT22;43708;48.828;9.166;2023-05-16T11:27:31;19.90;93.90
57892;DHT22;43708;48.828;9.166;2023-05-16T11:32:39;19.90;93.90
57892;DHT22;43708;48.828;9.166;2023-05-16T11:35:07;19.90;93.90
57892;DHT22;43708;48.828;9.166;2023-05-16T11:37:34;19.90;93.90
57892;DHT22;43708;48.828;9.166;2023-05-16T11:40:07;19.90;93.90
57892;DHT22;43708;48.828;9.166;2023-05-16T11:42:44;19.90;93.90
57892;DHT22;43708;48.828;9.166;2023-05-16T11:45:14;19.90;93.90
57892;DHT22;43708;48.828;9.166;2023-05-16T11:47:40;19.90;93.80
57892;DHT22;43708;48.828;9.166;2023-05-16T11:50:11;19.90;93.80
57892;DHT22;43708;48.828;9.166;2023-05-16T11:52:37;19.90;93.90
57892;DHT22;43708;48.828;9.166;2023-05-16T11:55:06;19.90;93.80
57892;DHT22;43708;48.828;9.166;2023-05-16T11:57:33;19.80;93.80
57892;DHT22;43708;48.828;9.166;2023-05-16T12:00:21;19.80;93.90
57892;DHT22;43708;48.828;9.166;2023-05-16T12:02:48;19.80;93.90
57892;DHT22;43708;48.828;9.166;2023-05-16T12:05:16;19.80;93.90
57892;DHT22;43708;48.828;9.166;2023-05-16T12:07:42;19.80;93.90
57892;DHT22;43708;48.828;9.166;2023-05-16T12:10:11;19.80;93.90
57892;DHT22;43708;48.828;9.166;2023-05-16T12:12:38;19.80;93.90
57892;DHT22;43708;48.828;9.166;2023-05-16T12:15:05;19.80;93.90
57892;DHT22;43708;48.828;9.166;2023-05-16T12:17:36;19.70;93.80
57892;DHT22;43708;48.828;9.166;2023-05-16T12:20:04;19.70;93.80
57892;DHT22;43708;48.828;9.166;2023-05-16T12:22:38;19.70;93.80
57892;DHT22;43708;48.828;9.166;2023-05-16T12:27:56;19.70;93.80
57892;DHT22;43708;48.828;9.166;2023-05-16T12:30:23;19.70;93.80
57892;DHT22;43708;48.828;9.166;2023-05-16T12:33:03;19.70;94.10
57892;DHT22;43708;48.828;9.166;2023-05-16T12:35:33;19.70;93.80
57892;DHT22;43708;48.828;9.166;2023-05-16T12:38:13;19.70;93.70
57892;DHT22;43708;48.828;9.166;2023-05-16T12:40:40;19.70;93.60
57892;DHT22;43708;48.828;9.166;2023-05-16T12:43:18;19.70;93.60
57892;DHT22;43708;48.828;9.166;2023-05-16T12:45:51;19.70;93.60
57892;DHT22;43708;48.828;9.166;2023-05-16T12:48:17;19.70;93.60
57892;DHT22;43708;48.828;9.166;2023-05-16T12:50:43;19.70;93.60
57892;DHT22;43708;48.828;9.166;2023-05-16T12:53:15;19.70;93.50
57892;DHT22;43708;48.828;9.166;2023-05-16T12:55:42;19.70;93.50
57892;DHT22;43708;48.828;9.166;2023-05-16T12:58:08;19.70;93.80
57892;DHT22;43708;48.828;9.166;2023-05-16T13:00:34;19.70;93.40
57892;DHT22;43708;48.828;9.166;2023-05-16T13:03:01;19.70;93.40
57892;DHT22;43708;48.828;9.166;2023-05-16T13:05:27;19.70;93.40
57892;DHT22;43708;48.828;9.166;2023-05-16T13:07:53;19.70;93.30
57892;DHT22;43708;48.828;9.166;2023-05-16T13:10:19;19.70;93.30
57892;DHT22;43708;48.828;9.166;2023-05-16T13:12:44;19.70;93.30
57892;DHT22;43708;48.828;9.166;2023-05-16T13:15:10;19.70;93.30
57892;DHT22;43708;48.828;9.166;2023-05-16T13:17:37;19.80;93.30
57892;DHT22;43708;48.828;9.166;2023-05-16T13:20:05;19.80;93.60
57892;DHT22;43708;48.828;9.166;2023-05-16T13:22:40;19.80;93.20
57892;DHT22;43708;48.828;9.166;2023-05-16T13:25:06;19.80;93.20
57892;DHT22;43708;48.828;9.166;2023-05-16T13:27:33;19.80;93.10
57892;DHT22;43708;48.828;9.166;2023-05-16T13:29:59;19.80;93.10
57892;DHT22;43708;48.828;9.166;2023-05-16T13:32:25;19.80;93.10
57892;DHT22;43708;48.828;9.166;2023-05-16T13:34:50;19.70;93.10
57892;DHT22;43708;48.828;9.166;2023-05-16T13:37:17;19.70;93.10
57892;DHT22;43708;48.828;9.166;2023-05-16T13:39:43;19.80;93.10
57892;DHT22;43708;48.828;9.166;2023-05-16T13:42:09;19.70;93.10
57892;DHT22;43708;48.828;9.166;2023-05-16T13:44:35;19.80;93.10
57892;DHT22;43708;48.828;9.166;2023-05-16T13:47:01;19.70;93.10
57892;DHT22;43708;48.828;9.166;2023-05-16T13:49:27;19.80;93.10
57892;DHT22;43708;48.828;9.166;2023-05-16T13:51:52;19.80;93.10
57892;DHT22;43708;48.828;9.166;2023-05-16T13:54:18;19.70;93.10
57892;DHT22;43708;48.828;9.166;2023-05-16T13:56:44;19.70;93.00
57892;DHT22;43708;48.828;9.166;2023-05-16T13:59:10;19.70;93.10
57892;DHT22;43708;48.828;9.166;2023-05-16T14:01:35;19.70;93.10
57892;DHT22;43708;48.828;9.166;2023-05-16T14:04:02;19.70;93.00
57892;DHT22;43708;48.828;9.166;2023-05-16T14:06:27;19.70;93.00
57892;DHT22;43708;48.828;9.166;2023-05-16T14:08:53;19.70;93.00
57892;DHT22;43708;48.828;9.166;2023-05-16T14:11:19;19.70;93.00
57892;DHT22;43708;48.828;9.166;2023-05-16T14:13:47;19.70;92.90
57892;DHT22;43708;48.828;9.166;2023-05-16T14:16:13;19.70;92.90
57892;DHT22;43708;48.828;9.166;2023-05-16T14:18:39;19.70;92.90
57892;DHT22;43708;48.828;9.166;2023-05-16T14:21:05;19.70;93.00
57892;DHT22;43708;48.828;9.166;2023-05-16T14:23:30;19.80;93.00
57892;DHT22;43708;48.828;9.166;2023-05-16T14:25:56;19.80;93.00
57892;DHT22;43708;48.828;9.166;2023-05-16T14:28:22;19.80;93.00
57892;DHT22;43708;48.828;9.166;2023-05-16T14:30:47;19.80;93.10
57892;DHT22;43708;48.828;9.166;2023-05-16T14:33:13;19.80;93.00
57892;DHT22;43708;48.828;9.166;2023-05-16T14:35:38;19.80;93.00
57892;DHT22;43708;48.828;9.166;2023-05-16T14:38:05;19.80;93.10
57892;DHT22;43708;48.828;9.166;2023-05-16T14:40:32;19.80;93.10
57892;DHT22;43708;48.828;9.166;2023-05-16T14:42:58;19.80;93.10
57892;DHT22;43708;48.828;9.166;2023-05-16T14:45:24;19.80;93.10
57892;DHT22;43708;48.828;9.166;2023-05-16T14:47:50;19.80;93.10
57892;DHT22;43708;48.828;9.166;2023-05-16T14:50:16;19.80;93.10
57892;DHT22;43708;48.828;9.166;2023-05-16T14:52:42;19.80;93.10
57892;DHT22;43708;48.828;9.166;2023-05-16T14:55:08;19.80;93.10
57892;DHT22;43708;48.828;9.166;2023-05-16T14:57:33;19.80;93.10
57892;DHT22;43708;48.828;9.166;2023-05-16T14:59:59;19.80;93.10
57892;DHT22;43708;48.828;9.166;2023-05-16T15:02:25;19.80;93.10
57892;DHT22;43708;48.828;9.166;2023-05-16T15:04:51;19.80;93.10
57892;DHT22;43708;48.828;9.166;2023-05-16T15:07:18;19.80;93.00
57892;DHT22;43708;48.828;9.166;2023-05-16T15:09:43;19.90;93.00
57892;DHT22;43708;48.828;9.166;2023-05-16T15:12:09;19.80;92.80
57892;DHT22;43708;48.828;9.166;2023-05-16T15:14:35;19.90;92.90
57892;DHT22;43708;48.828;9.166;2023-05-16T15:17:00;19.90;92.90
57892;DHT22;43708;48.828;9.166;2023-05-16T15:19:26;19.90;92.90
57892;DHT22;43708;48.828;9.166;2023-05-16T15:21:51;19.90;92.90
57892;DHT22;43708;48.828;9.166;2023-05-16T15:24:17;19.90;92.80
57892;DHT22;43708;48.828;9.166;2023-05-16T15:26:43;19.90;92.80
57892;DHT22;43708;48.828;9.166;2023-05-16T15:29:08;19.90;92.80
57892;DHT22;43708;48.828;9.166;2023-05-16T15:31:35;19.90;92.80
57892;DHT22;43708;48.828;9.166;2023-05-16T15:34:00;19.90;92.80
57892;DHT22;43708;48.828;9.166;2023-05-16T15:36:26;19.90;92.80
57892;DHT22;43708;48.828;9.166;2023-05-16T15:38:51;19.90;92.70
57892;DHT22;43708;48.828;9.166;2023-05-16T15:41:17;19.90;92.60
57892;DHT22;43708;48.828;9.166;2023-05-16T15:43:43;19.90;92.60
57892;DHT22;43708;48.828;9.166;2023-05-16T15:46:08;19.90;92.60
57892;DHT22;43708;48.828;9.166;2023-05-16T15:48:36;19.80;92.60
57892;DHT22;43708;48.828;9.166;2023-05-16T15:51:02;19.80;92.60